createdAt,value
2018-02-22T00:00:56.889Z,25.87
2018-02-22T00:03:23.906Z,25.93
2018-02-22T00:05:50.157Z,20.93
2018-02-22T00:08:16.450Z,21.73
2018-02-22T00:10:44.117Z,21.90
2018-02-22T00:13:11.881Z,25.60
2018-02-22T00:15:38.869Z,25.80
2018-02-22T00:18:05.114Z,25.73
2018-02-22T00:20:31.717Z,26.60
2018-02-22T00:22:59.055Z,29.83
2018-02-22T00:25:25.933Z,23.20
2018-02-22T00:27:53.533Z,35.67
2018-02-22T00:30:20.340Z,34.50
2018-02-22T00:32:47.746Z,25.07
2018-02-22T00:35:13.994Z,23.40
2018-02-22T00:37:40.244Z,31.77
2018-02-22T00:40:06.557Z,23.20
2018-02-22T00:42:32.816Z,23.80
2018-02-22T00:44:59.162Z,20.50
2018-02-22T00:47:26.425Z,26.10
2018-02-22T00:49:53.425Z,24.17
2018-02-22T00:52:20.244Z,28.93
2018-02-22T00:54:46.489Z,22.00
2018-02-22T00:57:12.737Z,25.77
2018-02-22T00:59:39.446Z,26.30
2018-02-22T01:02:07.142Z,31.53
2018-02-22T01:04:33.389Z,36.60
2018-02-22T01:06:59.641Z,29.70
2018-02-22T01:09:26.228Z,37.10
2018-02-22T01:11:53.225Z,33.43
2018-02-22T01:14:20.125Z,26.70
2018-02-22T01:16:47.125Z,22.23
2018-02-22T01:19:14.055Z,24.00
2018-02-22T01:21:40.973Z,25.70
2018-02-22T01:24:07.973Z,22.33
2018-02-22T01:26:34.737Z,22.23
2018-02-22T01:29:01.521Z,22.93
2018-02-22T01:31:28.857Z,23.57
2018-02-22T01:33:55.109Z,24.43
2018-02-22T01:36:22.153Z,22.27
2018-02-22T01:38:49.835Z,26.17
2018-02-22T01:41:16.828Z,25.40
2018-02-22T01:43:43.068Z,21.33
2018-02-22T01:46:09.573Z,23.73
2018-02-22T01:48:35.836Z,23.47
2018-02-22T01:51:02.745Z,24.80
2018-02-22T01:53:29.733Z,25.30
2018-02-22T01:55:55.985Z,30.40
2018-02-22T01:58:22.876Z,32.10
2018-02-22T02:00:49.876Z,31.27
2018-02-22T02:03:16.681Z,29.17
2018-02-22T02:05:43.665Z,26.97
2018-02-22T02:08:09.906Z,22.67
2018-02-22T02:10:36.171Z,23.40
2018-02-22T02:13:02.425Z,25.60
2018-02-22T02:15:30.201Z,26.03
2018-02-22T02:17:57.668Z,22.07
2018-02-22T02:20:25.860Z,22.43
2018-02-22T02:22:52.131Z,24.43
2018-02-22T02:25:19.132Z,22.93
2018-02-22T02:27:52.057Z,24.97
2018-02-22T02:30:18.722Z,24.10
2018-02-22T02:32:44.973Z,21.73
2018-02-22T02:35:11.226Z,21.50
2018-02-22T02:37:38.586Z,23.23
2018-02-22T02:40:05.601Z,20.80
2018-02-22T02:42:32.010Z,24.63
2018-02-22T02:44:58.278Z,30.30
2018-02-22T02:47:24.517Z,25.00
2018-02-22T02:49:50.774Z,22.50
2018-02-22T02:52:18.543Z,20.83
2018-02-22T02:54:46.013Z,23.63
2018-02-22T02:57:13.585Z,23.30
2018-02-22T02:59:41.143Z,19.30
2018-02-22T03:02:08.706Z,19.60
2018-02-22T03:04:35.770Z,25.67
2018-02-22T03:07:02.842Z,27.03
2018-02-22T03:09:29.453Z,24.33
2018-02-22T03:11:56.468Z,23.70
2018-02-22T03:14:23.258Z,20.50
2018-02-22T03:16:49.517Z,23.67
2018-02-22T03:19:16.337Z,22.47
2018-02-22T03:21:43.316Z,22.90
2018-02-22T03:24:09.572Z,24.60
2018-02-22T03:26:36.265Z,22.53
2018-02-22T03:29:04.034Z,25.70
2018-02-22T03:31:31.472Z,31.93
2018-02-22T03:33:57.730Z,28.93
2018-02-22T03:36:24.713Z,26.73
2018-02-22T03:38:50.985Z,25.57
2018-02-22T03:41:17.237Z,31.03
2018-02-22T03:43:44.314Z,24.00
2018-02-22T03:46:11.873Z,22.13
2018-02-22T03:48:38.868Z,23.80
2018-02-22T03:51:05.699Z,20.33
2018-02-22T03:53:32.594Z,26.67
2018-02-22T03:55:58.844Z,21.90
2018-02-22T03:58:25.834Z,21.27
2018-02-22T04:00:52.545Z,19.33
2018-02-22T04:03:20.065Z,18.27
2018-02-22T04:05:46.322Z,22.57
2018-02-22T04:08:12.697Z,23.73
2018-02-22T04:10:39.715Z,22.10
2018-02-22T04:13:06.681Z,17.47
2018-02-22T04:15:34.118Z,19.47
2018-02-22T04:18:00.380Z,16.60
2018-02-22T04:20:29.257Z,20.10
2018-02-22T04:22:55.528Z,23.67
2018-02-22T04:25:22.125Z,25.53
2018-02-22T04:27:48.813Z,25.80
2018-02-22T04:30:16.437Z,26.90
2018-02-22T04:32:42.692Z,28.80
2018-02-22T04:35:09.792Z,23.20
2018-02-22T04:37:36.074Z,22.73
2018-02-22T04:40:02.349Z,23.73
2018-02-22T04:42:28.685Z,26.77
2018-02-22T04:44:54.943Z,26.87
2018-02-22T04:47:21.181Z,27.83
2018-02-22T04:49:47.449Z,21.57
2018-02-22T04:52:14.181Z,19.80
2018-02-22T04:54:41.161Z,24.43
2018-02-22T04:57:08.149Z,21.90
2018-02-22T04:59:34.410Z,24.10
2018-02-22T05:02:01.222Z,23.87
2018-02-22T05:04:28.011Z,22.80
2018-02-22T05:06:54.258Z,23.97
2018-02-22T05:09:21.741Z,20.77
2018-02-22T05:11:48.730Z,19.70
2018-02-22T05:14:15.435Z,22.50
2018-02-22T05:16:42.321Z,22.20
2018-02-22T05:19:09.024Z,20.73
2018-02-22T05:21:36.013Z,21.90
2018-02-22T05:24:02.269Z,23.20
2018-02-22T05:26:29.017Z,23.53
2018-02-22T05:28:55.698Z,20.73
2018-02-22T05:31:23.374Z,21.00
2018-02-22T05:33:50.357Z,22.10
2018-02-22T05:36:16.651Z,23.40
2018-02-22T05:38:44.013Z,20.43
2018-02-22T05:41:11.001Z,23.10
2018-02-22T05:43:37.349Z,23.40
2018-02-22T05:46:03.944Z,21.70
2018-02-22T05:48:31.826Z,21.73
2018-02-22T05:50:58.092Z,19.67
2018-02-22T05:53:24.897Z,19.60
2018-02-22T05:55:51.901Z,23.07
2018-02-22T05:58:18.189Z,21.40
2018-02-22T06:00:45.445Z,20.90
2018-02-22T06:03:12.429Z,21.80
2018-02-22T06:05:38.773Z,20.70
2018-02-22T06:08:05.677Z,20.33
2018-02-22T06:10:33.549Z,20.17
2018-02-22T06:13:01.037Z,22.30
2018-02-22T06:15:27.729Z,21.07
2018-02-22T06:17:53.994Z,19.87
2018-02-22T06:20:20.994Z,19.00
2018-02-22T06:22:47.258Z,17.50
2018-02-22T06:25:13.929Z,18.80
2018-02-22T06:27:41.349Z,15.67
2018-02-22T06:30:08.138Z,18.80
2018-02-22T06:32:35.133Z,20.53
2018-02-22T06:35:01.382Z,19.43
2018-02-22T06:37:27.969Z,21.07
2018-02-22T06:39:54.955Z,20.40
2018-02-22T06:42:21.385Z,20.90
2018-02-22T06:44:47.649Z,19.20
2018-02-22T06:47:14.537Z,19.53
2018-02-22T06:49:41.521Z,19.07
2018-02-22T06:52:08.341Z,17.30
2018-02-22T06:54:35.805Z,20.30
2018-02-22T06:57:02.801Z,20.77
2018-02-22T06:59:29.045Z,19.43
2018-02-22T07:01:55.631Z,17.77
2018-02-22T07:04:24.228Z,18.73
2018-02-22T07:06:50.466Z,19.80
2018-02-22T07:09:17.376Z,19.90
2018-02-22T07:11:44.355Z,18.57
2018-02-22T07:14:11.780Z,20.37
2018-02-22T07:16:38.027Z,20.40
2018-02-22T07:19:04.794Z,18.47
2018-02-22T07:21:31.793Z,17.20
2018-02-22T07:23:58.052Z,14.43
2018-02-22T07:26:24.710Z,14.93
2018-02-22T07:28:51.743Z,16.00
2018-02-22T07:31:18.523Z,18.17
2018-02-22T07:33:45.517Z,21.33
2018-02-22T07:36:11.778Z,22.13
2018-02-22T07:38:38.474Z,23.47
2018-02-22T07:41:04.716Z,25.40
2018-02-22T07:43:30.965Z,22.30
2018-02-22T07:45:58.260Z,20.30
2018-02-22T07:48:25.976Z,23.60
2018-02-22T07:50:52.264Z,24.50
2018-02-22T07:53:19.782Z,20.53
2018-02-22T07:55:46.036Z,21.10
2018-02-22T07:58:12.309Z,22.13
2018-02-22T08:00:39.315Z,25.17
2018-02-22T08:03:06.205Z,23.93
2018-02-22T08:05:33.576Z,25.60
2018-02-22T08:07:59.805Z,21.30
2018-02-22T08:10:27.282Z,23.97
2018-02-22T08:12:54.261Z,24.13
2018-02-22T08:15:21.034Z,23.33
2018-02-22T08:17:47.300Z,25.77
2018-02-22T08:20:14.284Z,22.70
2018-02-22T08:22:40.818Z,24.93
2018-02-22T08:25:07.954Z,21.73
2018-02-22T08:27:35.508Z,27.23
2018-02-22T08:30:02.170Z,25.03
2018-02-22T08:32:29.210Z,23.93
2018-02-22T08:34:56.196Z,25.53
2018-02-22T08:37:22.836Z,24.90
2018-02-22T08:39:49.083Z,25.73
2018-02-22T08:42:15.978Z,22.47
2018-02-22T08:44:42.251Z,25.53
2018-02-22T08:47:08.514Z,23.47
2018-02-22T08:49:34.789Z,24.27
2018-02-22T08:52:02.362Z,18.30
2018-02-22T08:54:30.746Z,18.20
2018-02-22T08:56:57.732Z,20.20
2018-02-22T08:59:23.978Z,21.80
2018-02-22T09:01:51.075Z,21.27
2018-02-22T09:04:17.704Z,20.13
2018-02-22T09:06:44.581Z,22.87
2018-02-22T09:09:11.563Z,22.27
2018-02-22T09:11:37.813Z,22.93
2018-02-22T09:14:04.498Z,20.57
2018-02-22T09:16:30.877Z,26.50
2018-02-22T09:18:57.117Z,22.53
2018-02-22T09:21:23.377Z,25.37
2018-02-22T09:23:49.626Z,26.67
2018-02-22T09:26:17.109Z,24.80
2018-02-22T09:28:44.093Z,24.40
2018-02-22T09:31:10.905Z,19.13
2018-02-22T09:33:38.357Z,19.43
2018-02-22T09:36:05.357Z,18.77
2018-02-22T09:38:31.637Z,21.60
2018-02-22T09:40:58.978Z,19.67
2018-02-22T09:43:25.229Z,22.20
2018-02-22T09:45:52.213Z,24.90
2018-02-22T09:48:19.213Z,24.17
2018-02-22T09:50:45.449Z,24.17
2018-02-22T09:53:12.237Z,20.10
2018-02-22T09:55:39.225Z,24.97
2018-02-22T09:58:06.346Z,24.50
2018-02-22T10:00:33.675Z,23.47
2018-02-22T10:02:59.924Z,19.03
2018-02-22T10:05:26.572Z,19.47
2018-02-22T10:07:53.546Z,24.27
2018-02-22T10:10:19.789Z,20.70
2018-02-22T10:12:46.110Z,22.17
2018-02-22T10:15:12.937Z,25.30
2018-02-22T10:17:39.185Z,21.00
2018-02-22T10:20:06.170Z,20.70
2018-02-22T10:22:32.496Z,21.33
2018-02-22T10:24:59.084Z,21.40
2018-02-22T10:27:25.861Z,21.17
2018-02-22T10:29:53.524Z,22.10
2018-02-22T10:32:20.516Z,20.13
2018-02-22T10:34:46.777Z,19.60
2018-02-22T10:37:13.545Z,17.53
2018-02-22T10:39:39.795Z,20.80
2018-02-22T10:42:06.782Z,20.83
2018-02-22T10:44:33.108Z,19.63
2018-02-22T10:46:59.349Z,17.60
2018-02-22T10:49:25.681Z,17.27
2018-02-22T10:51:52.839Z,20.47
2018-02-22T10:54:19.116Z,20.00
2018-02-22T10:56:46.597Z,18.70
2018-02-22T10:59:14.579Z,19.63
2018-02-22T11:01:48.597Z,19.60
2018-02-22T11:04:15.586Z,22.63
2018-02-22T11:06:41.889Z,21.80
2018-02-22T11:09:08.615Z,20.30
2018-02-22T11:11:35.610Z,19.77
2018-02-22T11:14:02.865Z,20.33
2018-02-22T11:16:29.107Z,18.40
2018-02-22T11:18:55.914Z,20.60
2018-02-22T11:21:22.901Z,20.23
2018-02-22T11:23:49.149Z,22.17
2018-02-22T11:26:15.885Z,19.73
2018-02-22T11:28:42.177Z,15.93
2018-02-22T11:31:09.749Z,18.93
2018-02-22T11:33:36.725Z,18.83
2018-02-22T11:36:03.540Z,20.60
2018-02-22T11:38:30.527Z,20.73
2018-02-22T11:40:56.780Z,21.07
2018-02-22T11:43:23.058Z,26.13
2018-02-22T11:45:50.034Z,30.17
2018-02-22T11:48:16.373Z,26.43
2018-02-22T11:50:42.633Z,20.50
2018-02-22T11:53:09.437Z,20.43
2018-02-22T11:55:36.825Z,19.93
2018-02-22T11:58:03.099Z,19.47
2018-02-22T12:00:30.572Z,21.73
2018-02-22T12:02:56.817Z,21.27
2018-02-22T12:05:23.794Z,20.70
2018-02-22T12:07:50.053Z,20.63
2018-02-22T12:10:16.349Z,19.80
2018-02-22T12:12:43.929Z,22.10
2018-02-22T12:15:12.490Z,19.93
2018-02-22T12:17:39.474Z,21.00
2018-02-22T12:20:05.722Z,22.00
2018-02-22T12:22:31.987Z,21.03
2018-02-22T12:24:59.296Z,19.17
2018-02-22T12:27:26.021Z,20.83
2018-02-22T12:29:53.633Z,25.40
2018-02-22T12:32:20.428Z,19.63
2018-02-22T12:34:47.409Z,21.07
2018-02-22T12:37:13.649Z,19.50
2018-02-22T12:39:39.929Z,18.70
2018-02-22T12:42:07.661Z,21.23
2018-02-22T12:44:33.986Z,20.20
2018-02-22T12:47:00.257Z,21.10
2018-02-22T12:49:26.547Z,21.07
2018-02-22T12:51:54.319Z,21.70
2018-02-22T12:54:21.021Z,20.40
2018-02-22T12:56:47.618Z,20.33
2018-02-22T12:59:13.857Z,20.60
2018-02-22T13:01:40.093Z,21.23
2018-02-22T13:04:06.555Z,19.50
2018-02-22T13:06:33.604Z,21.70
2018-02-22T13:09:00.253Z,21.57
2018-02-22T13:11:26.509Z,19.20
2018-02-22T13:13:53.461Z,20.87
2018-02-22T13:16:19.804Z,20.03
2018-02-22T13:18:46.810Z,20.87
2018-02-22T13:21:13.292Z,18.70
2018-02-22T13:23:39.525Z,19.93
2018-02-22T13:26:06.920Z,17.20
2018-02-22T13:28:33.618Z,19.80
2018-02-22T13:31:01.687Z,20.00
2018-02-22T13:33:40.235Z,20.00
2018-02-22T13:36:07.581Z,19.50
2018-02-22T13:38:46.220Z,19.13
2018-02-22T13:41:12.567Z,21.10
2018-02-22T13:43:38.821Z,21.27
2018-02-22T13:46:05.065Z,20.80
2018-02-22T13:48:44.700Z,19.27
2018-02-22T13:51:11.412Z,21.93
2018-02-22T13:53:38.349Z,21.33
2018-02-22T13:56:05.772Z,20.87
2018-02-22T13:58:32.009Z,21.40
2018-02-22T14:01:10.963Z,20.87
2018-02-22T14:03:38.002Z,21.47
2018-02-22T14:06:04.997Z,21.23
2018-02-22T14:08:41.521Z,20.70
2018-02-22T14:11:07.847Z,19.60
2018-02-22T14:13:34.730Z,23.07
2018-02-22T14:16:02.149Z,21.87
2018-02-22T14:18:28.380Z,20.23
2018-02-22T14:20:54.631Z,22.30
2018-02-22T14:23:21.906Z,19.40
2018-02-22T14:25:49.380Z,20.60
2018-02-22T14:28:16.937Z,21.00
2018-02-22T14:30:43.847Z,20.63
2018-02-22T14:33:10.085Z,21.90
2018-02-22T14:35:36.340Z,21.40
2018-02-22T14:38:03.349Z,19.93
2018-02-22T14:40:29.641Z,16.30
2018-02-22T14:42:56.738Z,19.77
2018-02-22T14:45:23.637Z,20.90
2018-02-22T14:47:50.390Z,18.80
2018-02-22T14:50:17.721Z,20.70
2018-02-22T14:52:44.501Z,20.40
2018-02-22T14:55:11.936Z,21.03
2018-02-22T14:57:38.931Z,20.50
2018-02-22T15:00:05.225Z,18.50
2018-02-22T15:02:33.321Z,21.27
2018-02-22T15:05:00.324Z,23.57
2018-02-22T15:07:26.667Z,19.37
2018-02-22T15:09:53.245Z,21.63
2018-02-22T15:12:19.490Z,40.97
2018-02-22T15:14:47.145Z,30.20
2018-02-22T15:17:13.404Z,25.37
2018-02-22T15:19:39.682Z,19.70
2018-02-22T15:22:06.257Z,23.63
2018-02-22T15:24:33.009Z,28.03
2018-02-22T15:27:00.418Z,23.57
2018-02-22T15:29:27.322Z,20.67
2018-02-22T15:31:54.314Z,22.30
2018-02-22T15:34:20.562Z,24.40
2018-02-22T15:36:47.149Z,24.40
2018-02-22T15:39:14.294Z,23.43
2018-02-22T15:41:41.402Z,21.30
2018-02-22T15:44:08.752Z,24.30
2018-02-22T15:46:36.392Z,24.23
2018-02-22T15:49:03.860Z,25.53
2018-02-22T15:51:30.843Z,21.43
2018-02-22T15:53:57.498Z,19.57
2018-02-22T15:56:23.761Z,19.40
2018-02-22T15:58:51.363Z,20.23
2018-02-22T16:01:18.188Z,21.60
2018-02-22T16:03:45.185Z,23.07
2018-02-22T16:06:11.986Z,23.87
2018-02-22T16:08:39.150Z,20.70
2018-02-22T16:11:06.154Z,19.00
2018-02-22T16:13:32.855Z,25.80
2018-02-22T16:15:59.701Z,25.67
2018-02-22T16:18:26.304Z,23.27
2018-02-22T16:20:53.383Z,25.90
2018-02-22T16:23:20.738Z,28.03
2018-02-22T16:25:48.113Z,20.47
2018-02-22T16:28:14.909Z,19.67
2018-02-22T16:30:41.594Z,21.67
2018-02-22T16:33:08.582Z,21.50
2018-02-22T16:35:34.834Z,22.70
2018-02-22T16:38:01.322Z,20.70
2018-02-22T16:40:29.560Z,20.57
2018-02-22T16:42:56.445Z,20.07
2018-02-22T16:45:24.010Z,19.63
2018-02-22T16:47:51.000Z,18.40
2018-02-22T16:50:17.257Z,17.33
2018-02-22T16:52:44.146Z,19.73
2018-02-22T16:55:11.156Z,20.20
2018-02-22T16:57:37.421Z,19.53
2018-02-22T17:00:05.422Z,19.10
2018-02-22T17:02:31.682Z,19.83
2018-02-22T17:04:57.925Z,18.10
2018-02-22T17:07:24.517Z,17.77
2018-02-22T17:09:51.509Z,20.90
2018-02-22T17:12:18.193Z,18.97
2018-02-22T17:14:45.678Z,20.43
2018-02-22T17:17:12.690Z,19.93
2018-02-22T17:19:38.956Z,18.87
2018-02-22T17:22:06.353Z,22.20
2018-02-22T17:24:33.060Z,20.70
2018-02-22T17:27:06.073Z,18.67
2018-02-22T17:29:38.840Z,18.53
2018-02-22T17:32:11.924Z,16.50
2018-02-22T17:34:39.325Z,19.10
2018-02-22T17:37:25.889Z,17.20
2018-02-22T17:40:08.370Z,20.13
2018-02-22T17:42:42.309Z,21.57
2018-02-22T17:45:09.322Z,21.43
2018-02-22T17:47:35.597Z,22.20
2018-02-22T17:50:02.653Z,21.43
2018-02-22T17:52:30.119Z,20.20
2018-02-22T17:54:56.457Z,16.80
2018-02-22T17:57:22.738Z,16.53
2018-02-22T17:59:49.530Z,19.37
2018-02-22T18:02:16.557Z,21.07
2018-02-22T18:04:43.434Z,17.77
2018-02-22T18:07:10.474Z,20.57
2018-02-22T18:09:37.527Z,21.13
2018-02-22T18:12:05.003Z,15.90
2018-02-22T18:14:31.946Z,18.53
2018-02-22T18:16:58.997Z,17.87
2018-02-22T18:19:26.740Z,19.63
2018-02-22T18:21:53.517Z,20.37
2018-02-22T18:24:20.850Z,20.47
2018-02-22T18:26:47.129Z,20.93
2018-02-22T18:29:13.893Z,19.03
2018-02-22T18:31:40.608Z,17.33
2018-02-22T18:34:07.993Z,19.57
2018-02-22T18:36:34.762Z,17.37
2018-02-22T18:39:08.641Z,15.03
2018-02-22T18:41:40.994Z,15.20
2018-02-22T18:44:14.778Z,12.83
2018-02-22T18:46:41.837Z,14.17
2018-02-22T18:49:08.830Z,16.20
2018-02-22T18:51:35.203Z,15.00
2018-02-22T18:54:02.055Z,13.70
2018-02-22T18:56:29.059Z,13.20
2018-02-22T18:58:55.334Z,11.20
2018-02-22T19:01:22.026Z,12.40
2018-02-22T19:03:48.289Z,12.47
2018-02-22T19:06:14.722Z,19.83
2018-02-22T19:08:41.050Z,18.50
2018-02-22T19:11:07.559Z,19.33
2018-02-22T19:13:35.121Z,15.20
2018-02-22T19:16:02.588Z,13.87
2018-02-22T19:18:29.594Z,13.50
2018-02-22T19:20:56.370Z,16.30
2018-02-22T19:23:22.731Z,16.73
2018-02-22T19:25:50.403Z,14.67
2018-02-22T19:28:17.209Z,14.00
2018-02-22T19:30:44.058Z,13.63
2018-02-22T19:33:10.837Z,14.73
2018-02-22T19:35:38.397Z,13.20
2018-02-22T19:38:05.963Z,12.00
2018-02-22T19:40:32.973Z,14.10
2018-02-22T19:42:59.236Z,13.20
2018-02-22T19:45:27.773Z,12.83
2018-02-22T19:47:54.026Z,12.90
2018-02-22T19:50:20.283Z,13.10
2018-02-22T19:52:47.283Z,12.10
2018-02-22T19:55:13.587Z,11.77
2018-02-22T19:57:40.581Z,12.87
2018-02-22T20:00:07.499Z,13.10
2018-02-22T20:02:34.497Z,12.97
2018-02-22T20:05:01.194Z,12.90
2018-02-22T20:07:28.253Z,12.23
2018-02-22T20:09:55.243Z,13.47
2018-02-22T20:12:21.944Z,13.30
2018-02-22T20:14:49.708Z,13.43
2018-02-22T20:17:16.713Z,13.07
2018-02-22T20:19:43.536Z,12.10
2018-02-22T20:22:10.235Z,12.60
2018-02-22T20:24:37.004Z,13.10
2018-02-22T20:27:03.933Z,11.20
2018-02-22T20:29:30.573Z,13.83
2018-02-22T20:31:57.637Z,16.17
2018-02-22T20:34:25.909Z,14.50
2018-02-22T20:36:52.672Z,18.80
2018-02-22T20:39:19.681Z,15.63
2018-02-22T20:41:45.965Z,15.37
2018-02-22T20:44:13.424Z,15.07
2018-02-22T20:46:40.425Z,12.47
2018-02-22T20:49:06.683Z,17.00
2018-02-22T20:51:34.109Z,16.20
2018-02-22T20:54:01.124Z,16.60
2018-02-22T20:56:28.171Z,13.63
2018-02-22T20:58:55.210Z,17.20
2018-02-22T21:01:21.780Z,16.73
2018-02-22T21:03:48.830Z,15.80
2018-02-22T21:06:15.837Z,13.77
2018-02-22T21:08:42.860Z,12.40
2018-02-22T21:11:09.599Z,12.27
2018-02-22T21:13:36.523Z,13.63
2018-02-22T21:16:03.555Z,12.00
2018-02-22T21:18:30.388Z,12.70
2018-02-22T21:20:56.641Z,14.33
2018-02-22T21:23:22.889Z,17.37
2018-02-22T21:25:50.382Z,15.80
2018-02-22T21:28:16.665Z,15.27
2018-02-22T21:30:43.307Z,17.10
2018-02-22T21:33:10.224Z,14.10
2018-02-22T21:35:36.531Z,16.70
2018-02-22T21:38:02.801Z,16.10
2018-02-22T21:40:29.071Z,13.43
2018-02-22T21:42:55.338Z,13.07
2018-02-22T21:45:22.276Z,14.27
2018-02-22T21:47:49.276Z,19.03
2018-02-22T21:50:15.543Z,26.33
2018-02-22T21:52:42.204Z,24.40
2018-02-22T21:55:10.065Z,19.10
2018-02-22T21:57:37.741Z,19.30
2018-02-22T22:00:04.757Z,17.40
2018-02-22T22:02:31.049Z,17.57
2018-02-22T22:04:57.572Z,18.07
2018-02-22T22:07:24.578Z,18.83
2018-02-22T22:09:51.139Z,21.53
2018-02-22T22:12:17.399Z,18.83
2018-02-22T22:14:44.957Z,19.90
2018-02-22T22:17:12.322Z,18.60
2018-02-22T22:19:39.374Z,19.93
2018-02-22T22:22:06.930Z,20.27
2018-02-22T22:24:34.413Z,19.70
2018-02-22T22:27:01.223Z,18.10
2018-02-22T22:29:28.094Z,18.30
2018-02-22T22:31:55.771Z,15.57
2018-02-22T22:34:23.530Z,16.27
2018-02-22T22:36:51.009Z,16.83
2018-02-22T22:39:17.266Z,17.03
2018-02-22T22:41:43.550Z,15.57
2018-02-22T22:44:11.020Z,16.37
2018-02-22T22:46:37.941Z,15.57
2018-02-22T22:49:04.189Z,16.23
2018-02-22T22:51:30.745Z,14.43
2018-02-22T22:53:58.077Z,14.97
2018-02-22T22:56:24.958Z,16.10
2018-02-22T22:58:51.962Z,16.33
2018-02-22T23:01:18.233Z,16.40
2018-02-22T23:03:45.606Z,14.73
2018-02-22T23:06:13.195Z,15.40
2018-02-22T23:08:39.441Z,17.37
2018-02-22T23:11:06.557Z,15.60
2018-02-22T23:13:34.229Z,15.00
2018-02-22T23:16:01.210Z,20.17
2018-02-22T23:18:27.465Z,19.53
2018-02-22T23:20:53.752Z,21.37
2018-02-22T23:23:20.739Z,17.90
2018-02-22T23:25:47.442Z,18.57
2018-02-22T23:28:14.964Z,22.63
2018-02-22T23:30:41.575Z,18.53
2018-02-22T23:33:08.499Z,16.73
2018-02-22T23:35:35.566Z,17.97
2018-02-22T23:38:01.914Z,14.73
2018-02-22T23:40:31.294Z,15.93
2018-02-22T23:42:58.378Z,15.43
2018-02-22T23:45:24.981Z,16.87
2018-02-22T23:47:52.295Z,15.23
2018-02-22T23:50:18.573Z,15.63
2018-02-22T23:52:45.364Z,16.10
2018-02-22T23:55:12.475Z,20.63
2018-02-22T23:57:39.474Z,17.20
